HOURLY OBS INDEX

001

Kimberley - north

DOONGAN ASA

Site: 001036
Alt: 383.5m
126km SSW of KALUMBURU


  Time     Wind        Temp  DP   Baro     Rain since   Rain past  Vis(m), Cloud(base in m), Weather
  local        km/h                         9am  last   hr   10m    
Thu 14:00  ------/--- --------  1007.5   ----  ----  ----  ----   ----- 
Thu 14:30  ------/--- --------  1007.3   ----  ----  ----  ----   ----- 
Thu 15:00  ------/--- --------  1006.8   ----  ----  ----  ----   ----- 
Thu 15:30  ------/--- --------  1006.7   ----  ----  ----  ----   ----- 
Thu 16:00  ------/--- --------  1006.6   ----  ----  ----  ----   ----- 
Thu 16:00  ------/--- --------  1006.6   ----  ----  ----  ----   ----- 
Thu 16:30  ------/--- --------  1006.4   ----  ----  ----  ----   ----- 
Thu 17:00  ------/--- --------  1006.3   ----  ----  ----  ----   ----- 
Thu 17:30  ------/--- --------  1006.3   ----  ----  ----  ----   ----- 
Thu 18:00  ------/--- --------  1006.6   ----  ----  ----  ----   ----- 
Thu 18:00  ------/--- --------  1006.6   ----  ----  ----  ----   ----- 
Thu 18:00  ------/--- --------  1006.6   ----  ----  ----  ----   ----- 
Thu 18:30  ------/--- --------  1007.4   ----  ----  ----  ----   ----- 
Thu 19:00  ------/--- --------  1007.5   ----  ----  ----  ----   ----- 

KALUMBURU

Site: 001019
Alt: 23.0m
0.0km ESE of KALUMBURU


  Time     Wind        Temp  DP   Baro     Rain since   Rain past  Vis(m), Cloud(base in m), Weather
  local        km/h                         9am  last   hr   10m    
Thu 14:00  WNW 22/ 41  33.7 21.8  1004.6    0.0   0.0   0.0   0.0   ----- 
Thu 14:30    W 17/ 32  34.3 21.7  1004.0    0.0   0.0   0.0   0.0   ----- 
Thu 15:00    W 19/ 30  34.1 21.5  1004.2    0.0   0.0   0.0   0.0   ----- 
Thu 15:30    W 17/ 35  34.2 21.9  1004.5    0.0   0.0   0.0   0.0   ----- 
Thu 16:00  WNW 17/ 32  33.4 21.2  1004.7    0.0   0.0   0.0   0.0   ----- 
Thu 16:00  WNW 17/ 32  33.4 21.2  1004.7    0.0   0.0  ----   0.0   ----- 
Thu 16:30    W 15/ 30  33.5 21.3  1004.5    0.0   0.0   0.0   0.0   ----- 
Thu 17:00    W 13/ 28  32.8 21.6  1004.4    0.0   0.0   0.0   0.0   ----- 
Thu 17:30    W 13/ 22  31.7 22.1  1004.7    0.0   0.0   0.0   0.0   ----- 
Thu 18:00    W 11/ 20  31.0 22.3  1005.2    0.0   0.0   0.0   0.0   ----- 
Thu 18:00    W 11/ 20  31.0 22.3  1005.2    0.0   0.0  ----   0.0   ----- 
Thu 18:00    W 11/ 20  31.0 22.3  1005.2    0.0   0.0  ----   0.0   ----- 
Thu 18:30  WNW 13/ 20  30.6 22.5  1005.3    0.0   0.0   0.0   0.0   ----- 
Thu 19:00    W 13/ 28  30.3 22.7  1005.6    0.0   0.0   0.0   0.0   ----- 

TROUGHTON ISLAND

Site: 001007
Alt: 6.0m
80km NW of KALUMBURU


  Time     Wind        Temp  DP   Baro     Rain since   Rain past  Vis(m), Cloud(base in m), Weather
  local        km/h                         9am  last   hr   10m    
Thu 14:00  WNW 37/ 43  31.5 26.7  1005.9    0.0   0.0   0.0   0.0   ----- 
Thu 14:30    W 43/ 48  30.6 26.5  1005.3    0.0   0.0   0.0   0.0   ----- 
Thu 15:00    W 45/ 52  30.5 26.9  1005.2    0.0   0.0   0.0   0.0   ----- 
Thu 15:30    W 41/ 50  30.5 26.7  1005.5    0.0   0.0   0.0   0.0   ----- 
Thu 16:00    W 39/ 45  30.6 26.5  1005.8    0.0   0.0   0.0   0.0   ----- 
Thu 16:00    W 39/ 45  30.6 26.5  1005.8    0.0   0.0  ----   0.0   ----- 
Thu 16:30    W 35/ 43  30.0 26.4  1005.7    0.0   0.0   0.0   0.0   ----- 
Thu 17:00    W 39/ 45  29.7 26.3  1005.3    0.0   0.0   0.0   0.0   ----- 
Thu 17:30    W 39/ 45  29.5 26.1  1005.4    0.0   0.0   0.0   0.0   ----- 
Thu 18:00    W 39/ 45  29.4 26.4  1005.5    0.0   0.0   0.0   0.0   ----- 
Thu 18:00    W 39/ 45  29.4 26.4  1005.5    0.0   0.0  ----   0.0   ----- 
Thu 18:00    W 39/ 45  29.4 26.4  1005.5    0.0   0.0  ----   0.0   ----- 
Thu 18:30    W 37/ 46  29.4 26.0  1006.1    0.0   0.0   0.0   0.0   ----- 
Thu 19:00    W 33/ 41  29.2 26.0  1006.6    0.0   0.0   0.0   0.0   ----- 

TRUSCOTT

Site: 001020
Alt: 51.0m
36km NW of KALUMBURU


  Time     Wind        Temp  DP   Baro     Rain since   Rain past  Vis(m), Cloud(base in m), Weather
  local        km/h                         9am  last   hr   10m    
Thu 14:00    W 24/ 39  32.2 24.0  1005.0    0.0   0.0   0.0   0.0   10000|SC 660 BR 990 
Thu 14:14    W 30/ 50  31.7 23.5  1004.8    0.0   0.0  ----   0.0   10000|SC 660 SC 990 
Thu 14:30  WSW 32/ 52  31.8 23.9  1004.4    0.0   0.0   0.0   0.0   10000|SC 990 
Thu 15:00    W 32/ 46  30.8 24.2  1004.4    0.0   0.0   0.0   0.0   10000 
Thu 15:07    W 28/ 46  31.4 24.5  1004.5    0.0   0.0  ----   0.0   10000 
Thu 15:30    W 30/ 41  31.2 24.3  1005.0    0.0   0.0   0.0   0.0   10000|SC 630 
Thu 16:00    W 30/ 41  30.8 24.2  1005.1    0.0   0.0   0.0   0.0   10000|SC 690 
Thu 16:00    W 30/ 41  30.8 24.2  1005.1    0.0   0.0  ----   0.0   10000|SC 690 
Thu 16:30    W 24/ 35  30.7 23.9  1004.8    0.0   0.0   0.0   0.0   10000 
Thu 17:00    W 22/ 35  30.1 24.7  1004.7    0.0   0.0   0.0   0.0   10000|SC 600 SC 750 
Thu 17:30    W 24/ 37  29.8 24.4  1004.8    0.0   0.0   0.0   0.0   10000|SC 540 SC 750 
Thu 18:00    W 20/ 30  29.5 24.8  1005.3    0.0   0.0   0.0   0.0   10000|SC 540 
Thu 18:00    W 20/ 30  29.5 24.8  1005.3    0.0   0.0  ----   0.0   10000|SC 540 
Thu 18:00    W 20/ 30  29.5 24.8  1005.3    0.0   0.0  ----   0.0   10000|SC 540 
Thu 18:30  WSW 20/ 30  29.5 24.8  1005.5    0.0   0.0   0.0   0.0   10000|BR 540 BR 720 
Thu 19:00    W 22/ 35  29.4 24.7  1005.9    0.0   0.0   0.0   0.0   10000|SC 540 BR 780 

WYNDHAM AERO

Site: 001006
Alt: 3.8m
4km SE of WYNDHAM


  Time     Wind        Temp  DP   Baro     Rain since   Rain past  Vis(m), Cloud(base in m), Weather
  local        km/h                         9am  last   hr   10m    
Thu 14:00    W 33/ 45  38.1 21.7  1001.6    0.0   0.0   0.0   0.0   ----- 
Thu 14:30    W 33/ 43  38.6 21.7  1001.2    0.0   0.0   0.0   0.0   ----- 
Thu 15:00    W 32/ 45  39.0 21.6  1000.9    0.0   0.0   0.0   0.0   ----- 
Thu 15:30    W 32/ 41  39.2 20.4  1000.8    0.0   0.0   0.0   0.0   ----- 
Thu 16:00    W 30/ 41  39.5 20.7  1001.0    0.0   0.0   0.0   0.0   ----- 
Thu 16:00    W 30/ 41  39.5 20.7  1001.0    0.0   0.0  ----   0.0   ----- 
Thu 16:30    W 30/ 39  38.7 20.9  1001.2    0.0   0.0   0.0   0.0   ----- 
Thu 17:00    W 32/ 43  38.0 20.8  1001.3    0.0   0.0   0.0   0.0   ----- 
Thu 17:30    W 32/ 39  37.2 20.9  1001.4    0.0   0.0   0.0   0.0   ----- 
Thu 18:00    W 28/ 37  36.5 21.5  1001.3    0.0   0.0   0.0   0.0   ----- 
Thu 18:00    W 28/ 37  36.5 21.5  1001.3    0.0   0.0  ----   0.0   ----- 
Thu 18:00    W 28/ 37  36.5 21.5  1001.3    0.0   0.0  ----   0.0   ----- 
Thu 18:30    W 26/ 35  36.2 21.6  1001.5    0.0   0.0   0.0   0.0   ----- 
Thu 19:00    W 26/ 35  35.9 22.1  1002.4    0.0   0.0   0.0   0.0   -----